sensor_id;sensor_type;location;lat;lon;timestamp;pressure;altitude;pressure_sealevel;temperature;humidity
26376;BME280;30544;42.196;24.336;2022-12-29T00:00:18;100342.31;;;6.33;87.52
26376;BME280;30544;42.196;24.336;2022-12-29T00:02:44;100349.50;;;6.49;87.04
26376;BME280;30544;42.196;24.336;2022-12-29T00:05:11;100353.44;;;6.25;87.33
26376;BME280;30544;42.196;24.336;2022-12-29T00:07:38;100341.91;;;6.37;87.55
26376;BME280;30544;42.196;24.336;2022-12-29T00:10:07;100342.47;;;6.47;87.13
26376;BME280;30544;42.196;24.336;2022-12-29T00:12:34;100348.13;;;6.60;86.23
26376;BME280;30544;42.196;24.336;2022-12-29T00:15:14;100343.91;;;6.43;86.69
26376;BME280;30544;42.196;24.336;2022-12-29T00:17:59;100348.03;;;6.17;87.80
26376;BME280;30544;42.196;24.336;2022-12-29T00:20:25;100347.56;;;6.14;88.57
26376;BME280;30544;42.196;24.336;2022-12-29T00:23:09;100355.75;;;6.07;88.44
26376;BME280;30544;42.196;24.336;2022-12-29T00:25:55;100358.66;;;6.20;88.20
26376;BME280;30544;42.196;24.336;2022-12-29T00:28:39;100357.03;;;6.41;87.06
26376;BME280;30544;42.196;24.336;2022-12-29T00:31:23;100362.97;;;6.23;87.85
26376;BME280;30544;42.196;24.336;2022-12-29T00:34:09;100361.78;;;6.32;88.02
26376;BME280;30544;42.196;24.336;2022-12-29T00:36:54;100361.16;;;6.15;87.59
26376;BME280;30544;42.196;24.336;2022-12-29T00:39:21;100365.16;;;6.13;88.10
26376;BME280;30544;42.196;24.336;2022-12-29T00:42:08;100369.41;;;6.15;88.26
26376;BME280;30544;42.196;24.336;2022-12-29T00:44:52;100376.63;;;6.31;87.45
26376;BME280;30544;42.196;24.336;2022-12-29T00:47:19;100374.63;;;6.40;86.67
26376;BME280;30544;42.196;24.336;2022-12-29T00:49:45;100376.97;;;6.43;86.72
26376;BME280;30544;42.196;24.336;2022-12-29T00:52:12;100369.00;;;6.33;86.38
26376;BME280;30544;42.196;24.336;2022-12-29T00:54:40;100369.13;;;6.25;86.37
26376;BME280;30544;42.196;24.336;2022-12-29T00:57:09;100371.09;;;6.31;86.34
26376;BME280;30544;42.196;24.336;2022-12-29T00:59:36;100372.38;;;5.99;87.03
26376;BME280;30544;42.196;24.336;2022-12-29T01:02:03;100369.53;;;6.22;86.77
26376;BME280;30544;42.196;24.336;2022-12-29T01:04:30;100373.66;;;6.32;86.16
26376;BME280;30544;42.196;24.336;2022-12-29T01:06:57;100363.59;;;6.40;85.76
26376;BME280;30544;42.196;24.336;2022-12-29T01:09:24;100373.66;;;6.32;86.03
26376;BME280;30544;42.196;24.336;2022-12-29T01:12:11;100369.19;;;6.31;85.48
26376;BME280;30544;42.196;24.336;2022-12-29T01:14:38;100363.19;;;6.43;85.28
26376;BME280;30544;42.196;24.336;2022-12-29T01:17:05;100357.22;;;6.39;84.98
26376;BME280;30544;42.196;24.336;2022-12-29T01:19:32;100360.09;;;6.31;85.10
26376;BME280;30544;42.196;24.336;2022-12-29T01:21:58;100355.03;;;6.34;85.39
26376;BME280;30544;42.196;24.336;2022-12-29T01:24:25;100352.59;;;6.25;85.59
26376;BME280;30544;42.196;24.336;2022-12-29T01:26:52;100350.75;;;6.32;85.83
26376;BME280;30544;42.196;24.336;2022-12-29T01:29:21;100350.91;;;6.09;85.90
26376;BME280;30544;42.196;24.336;2022-12-29T01:31:48;100346.97;;;6.33;84.69
26376;BME280;30544;42.196;24.336;2022-12-29T01:34:15;100352.41;;;6.26;84.88
26376;BME280;30544;42.196;24.336;2022-12-29T01:36:42;100337.34;;;6.44;84.43
26376;BME280;30544;42.196;24.336;2022-12-29T01:39:09;100328.69;;;6.47;84.31
26376;BME280;30544;42.196;24.336;2022-12-29T01:41:36;100330.59;;;6.46;84.08
26376;BME280;30544;42.196;24.336;2022-12-29T01:46:48;100332.75;;;6.15;84.67
26376;BME280;30544;42.196;24.336;2022-12-29T01:49:18;100325.59;;;6.20;84.69
26376;BME280;30544;42.196;24.336;2022-12-29T01:51:48;100321.53;;;6.16;84.89
26376;BME280;30544;42.196;24.336;2022-12-29T01:54:21;100320.88;;;6.14;84.84
26376;BME280;30544;42.196;24.336;2022-12-29T01:56:50;100318.31;;;6.13;85.12
26376;BME280;30544;42.196;24.336;2022-12-29T01:59:21;100315.81;;;6.18;84.80
26376;BME280;30544;42.196;24.336;2022-12-29T02:01:51;100311.88;;;6.06;84.96
26376;BME280;30544;42.196;24.336;2022-12-29T02:04:18;100305.38;;;6.13;85.12
26376;BME280;30544;42.196;24.336;2022-12-29T02:06:47;100309.47;;;6.17;85.01
26376;BME280;30544;42.196;24.336;2022-12-29T02:09:16;100303.09;;;6.17;84.67
26376;BME280;30544;42.196;24.336;2022-12-29T02:11:43;100310.06;;;5.98;85.64
26376;BME280;30544;42.196;24.336;2022-12-29T02:14:11;100304.75;;;5.96;85.87
26376;BME280;30544;42.196;24.336;2022-12-29T02:16:58;100305.34;;;5.92;85.72
26376;BME280;30544;42.196;24.336;2022-12-29T02:19:53;100293.53;;;5.83;86.72
26376;BME280;30544;42.196;24.336;2022-12-29T02:22:31;100292.88;;;5.66;87.24
26376;BME280;30544;42.196;24.336;2022-12-29T02:25:23;100287.09;;;5.61;87.57
26376;BME280;30544;42.196;24.336;2022-12-29T02:28:15;100294.69;;;5.74;86.86
26376;BME280;30544;42.196;24.336;2022-12-29T02:31:07;100299.41;;;5.51;87.39
26376;BME280;30544;42.196;24.336;2022-12-29T02:33:47;100296.47;;;5.52;87.78
26376;BME280;30544;42.196;24.336;2022-12-29T02:36:24;100297.50;;;5.51;87.65
26376;BME280;30544;42.196;24.336;2022-12-29T02:39:01;100295.69;;;5.29;88.93
26376;BME280;30544;42.196;24.336;2022-12-29T02:41:33;100287.19;;;5.38;88.36
26376;BME280;30544;42.196;24.336;2022-12-29T02:44:04;100285.44;;;5.37;88.54
26376;BME280;30544;42.196;24.336;2022-12-29T02:46:44;100297.03;;;5.33;89.05
26376;BME280;30544;42.196;24.336;2022-12-29T02:49:17;100286.13;;;5.25;88.72
26376;BME280;30544;42.196;24.336;2022-12-29T02:51:51;100276.34;;;5.22;88.94
26376;BME280;30544;42.196;24.336;2022-12-29T02:54:19;100271.59;;;5.16;90.12
26376;BME280;30544;42.196;24.336;2022-12-29T02:57:05;100276.31;;;5.07;89.52
26376;BME280;30544;42.196;24.336;2022-12-29T02:59:35;100276.97;;;4.95;90.64
26376;BME280;30544;42.196;24.336;2022-12-29T03:02:18;100271.66;;;4.93;90.32
26376;BME280;30544;42.196;24.336;2022-12-29T03:04:51;100269.75;;;4.94;90.19
26376;BME280;30544;42.196;24.336;2022-12-29T03:07:26;100267.75;;;4.65;91.62
26376;BME280;30544;42.196;24.336;2022-12-29T03:10:01;100272.31;;;4.58;91.96
26376;BME280;30544;42.196;24.336;2022-12-29T03:12:36;100266.31;;;4.54;92.48
26376;BME280;30544;42.196;24.336;2022-12-29T03:15:28;100267.38;;;4.68;91.13
26376;BME280;30544;42.196;24.336;2022-12-29T03:18:20;100266.34;;;4.69;91.46
26376;BME280;30544;42.196;24.336;2022-12-29T03:20:51;100270.56;;;4.79;91.48
26376;BME280;30544;42.196;24.336;2022-12-29T03:23:19;100266.41;;;4.83;90.90
26376;BME280;30544;42.196;24.336;2022-12-29T03:25:51;100264.78;;;4.74;90.85
26376;BME280;30544;42.196;24.336;2022-12-29T03:28:22;100269.59;;;4.72;90.66
26376;BME280;30544;42.196;24.336;2022-12-29T03:30:51;100270.88;;;4.62;91.76
26376;BME280;30544;42.196;24.336;2022-12-29T03:33:22;100268.56;;;4.50;92.39
26376;BME280;30544;42.196;24.336;2022-12-29T03:35:53;100269.22;;;4.52;91.67
26376;BME280;30544;42.196;24.336;2022-12-29T03:38:25;100271.50;;;4.49;92.01
26376;BME280;30544;42.196;24.336;2022-12-29T03:40:57;100273.16;;;4.58;90.94
26376;BME280;30544;42.196;24.336;2022-12-29T03:43:25;100276.63;;;4.52;91.20
26376;BME280;30544;42.196;24.336;2022-12-29T03:45:53;100277.09;;;4.33;93.00
26376;BME280;30544;42.196;24.336;2022-12-29T03:48:21;100277.00;;;4.26;92.46
26376;BME280;30544;42.196;24.336;2022-12-29T03:50:48;100276.50;;;4.45;91.71
26376;BME280;30544;42.196;24.336;2022-12-29T03:53:15;100275.09;;;4.49;92.29
26376;BME280;30544;42.196;24.336;2022-12-29T03:55:42;100266.56;;;4.44;91.67
26376;BME280;30544;42.196;24.336;2022-12-29T03:58:09;100275.94;;;4.50;91.47
26376;BME280;30544;42.196;24.336;2022-12-29T04:00:35;100276.81;;;4.50;91.52
26376;BME280;30544;42.196;24.336;2022-12-29T04:03:02;100276.81;;;4.50;91.59
26376;BME280;30544;42.196;24.336;2022-12-29T04:05:30;100269.94;;;4.55;90.90
26376;BME280;30544;42.196;24.336;2022-12-29T04:07:57;100283.78;;;4.38;90.98
26376;BME280;30544;42.196;24.336;2022-12-29T04:10:24;100284.97;;;4.36;91.47
26376;BME280;30544;42.196;24.336;2022-12-29T04:12:51;100287.91;;;4.34;91.86
26376;BME280;30544;42.196;24.336;2022-12-29T04:15:18;100278.22;;;4.46;91.16
26376;BME280;30544;42.196;24.336;2022-12-29T04:17:44;100281.44;;;4.50;91.16
26376;BME280;30544;42.196;24.336;2022-12-29T04:20:11;100281.22;;;4.60;91.14
26376;BME280;30544;42.196;24.336;2022-12-29T04:23:01;100283.22;;;4.66;90.08
26376;BME280;30544;42.196;24.336;2022-12-29T04:25:30;100294.66;;;4.55;90.23
26376;BME280;30544;42.196;24.336;2022-12-29T04:27:57;100289.28;;;4.61;90.75
26376;BME280;30544;42.196;24.336;2022-12-29T04:30:24;100297.56;;;4.76;90.10
26376;BME280;30544;42.196;24.336;2022-12-29T04:32:51;100293.13;;;4.75;89.00
26376;BME280;30544;42.196;24.336;2022-12-29T04:35:18;100297.03;;;4.58;90.19
26376;BME280;30544;42.196;24.336;2022-12-29T04:37:45;100304.16;;;4.67;89.86
26376;BME280;30544;42.196;24.336;2022-12-29T04:40:13;100303.38;;;4.81;90.21
26376;BME280;30544;42.196;24.336;2022-12-29T04:42:40;100306.44;;;4.63;89.51
26376;BME280;30544;42.196;24.336;2022-12-29T04:45:07;100305.16;;;4.74;89.88
26376;BME280;30544;42.196;24.336;2022-12-29T04:47:34;100303.25;;;4.74;90.20
26376;BME280;30544;42.196;24.336;2022-12-29T04:50:01;100299.03;;;4.64;90.44
26376;BME280;30544;42.196;24.336;2022-12-29T04:52:28;100304.53;;;4.64;90.09
26376;BME280;30544;42.196;24.336;2022-12-29T04:54:55;100305.66;;;4.55;90.30
26376;BME280;30544;42.196;24.336;2022-12-29T04:57:23;100297.31;;;4.63;90.76
26376;BME280;30544;42.196;24.336;2022-12-29T04:59:50;100297.69;;;4.60;90.68
26376;BME280;30544;42.196;24.336;2022-12-29T05:02:17;100294.75;;;4.61;90.52
26376;BME280;30544;42.196;24.336;2022-12-29T05:04:44;100294.28;;;4.58;90.52
26376;BME280;30544;42.196;24.336;2022-12-29T05:07:12;100300.69;;;4.50;90.86
26376;BME280;30544;42.196;24.336;2022-12-29T05:09:39;100299.91;;;4.41;90.76
26376;BME280;30544;42.196;24.336;2022-12-29T05:12:06;100300.25;;;4.38;92.38
26376;BME280;30544;42.196;24.336;2022-12-29T05:14:34;100296.09;;;4.42;92.18
26376;BME280;30544;42.196;24.336;2022-12-29T05:17:01;100294.59;;;4.40;91.83
26376;BME280;30544;42.196;24.336;2022-12-29T05:19:28;100295.53;;;4.24;92.66
26376;BME280;30544;42.196;24.336;2022-12-29T05:21:55;100293.94;;;4.30;93.27
26376;BME280;30544;42.196;24.336;2022-12-29T05:24:21;100301.97;;;4.39;93.24
26376;BME280;30544;42.196;24.336;2022-12-29T05:26:48;100292.25;;;4.29;92.96
26376;BME280;30544;42.196;24.336;2022-12-29T05:29:15;100295.47;;;4.32;92.95
26376;BME280;30544;42.196;24.336;2022-12-29T05:31:43;100290.97;;;4.39;93.36
26376;BME280;30544;42.196;24.336;2022-12-29T05:34:10;100290.63;;;4.42;93.32
26376;BME280;30544;42.196;24.336;2022-12-29T05:36:37;100292.03;;;4.38;93.96
26376;BME280;30544;42.196;24.336;2022-12-29T05:39:05;100289.75;;;4.42;93.52
26376;BME280;30544;42.196;24.336;2022-12-29T05:41:32;100293.53;;;4.41;94.00
26376;BME280;30544;42.196;24.336;2022-12-29T05:44:00;100292.69;;;4.40;93.76
26376;BME280;30544;42.196;24.336;2022-12-29T05:46:26;100293.38;;;4.42;93.86
26376;BME280;30544;42.196;24.336;2022-12-29T05:48:54;100290.97;;;4.39;93.37
26376;BME280;30544;42.196;24.336;2022-12-29T05:51:21;100290.16;;;4.31;93.84
26376;BME280;30544;42.196;24.336;2022-12-29T05:53:48;100288.06;;;4.10;94.35
26376;BME280;30544;42.196;24.336;2022-12-29T05:56:15;100289.78;;;4.11;95.22
26376;BME280;30544;42.196;24.336;2022-12-29T05:58:42;100294.13;;;4.05;95.43
26376;BME280;30544;42.196;24.336;2022-12-29T06:01:08;100297.38;;;4.01;95.74
26376;BME280;30544;42.196;24.336;2022-12-29T06:03:35;100311.78;;;4.03;94.50
26376;BME280;30544;42.196;24.336;2022-12-29T06:06:06;100303.41;;;3.96;94.92
26376;BME280;30544;42.196;24.336;2022-12-29T06:08:33;100315.59;;;3.93;94.06
26376;BME280;30544;42.196;24.336;2022-12-29T06:11:00;100316.47;;;3.94;93.94
26376;BME280;30544;42.196;24.336;2022-12-29T06:13:27;100317.69;;;3.91;94.38
26376;BME280;30544;42.196;24.336;2022-12-29T06:15:54;100320.56;;;3.98;93.75
26376;BME280;30544;42.196;24.336;2022-12-29T06:18:20;100313.31;;;4.05;93.27
26376;BME280;30544;42.196;24.336;2022-12-29T06:20:47;100318.09;;;4.11;93.53
26376;BME280;30544;42.196;24.336;2022-12-29T06:23:16;100322.00;;;4.17;92.88
26376;BME280;30544;42.196;24.336;2022-12-29T06:25:43;100321.41;;;3.99;93.22
26376;BME280;30544;42.196;24.336;2022-12-29T06:28:10;100326.72;;;4.00;92.49
26376;BME280;30544;42.196;24.336;2022-12-29T06:30:37;100330.25;;;4.17;92.82
26376;BME280;30544;42.196;24.336;2022-12-29T06:33:04;100333.31;;;4.22;92.72
26376;BME280;30544;42.196;24.336;2022-12-29T06:35:33;100337.88;;;4.38;92.31
26376;BME280;30544;42.196;24.336;2022-12-29T06:38:00;100337.34;;;4.34;93.00
26376;BME280;30544;42.196;24.336;2022-12-29T06:40:28;100346.06;;;4.46;92.16
26376;BME280;30544;42.196;24.336;2022-12-29T06:42:55;100341.31;;;4.63;92.29
26376;BME280;30544;42.196;24.336;2022-12-29T06:45:22;100341.19;;;4.56;92.53
26376;BME280;30544;42.196;24.336;2022-12-29T06:47:49;100339.66;;;4.53;92.53
26376;BME280;30544;42.196;24.336;2022-12-29T06:50:16;100340.22;;;4.72;92.73
26376;BME280;30544;42.196;24.336;2022-12-29T06:52:43;100344.22;;;4.84;92.72
26376;BME280;30544;42.196;24.336;2022-12-29T06:55:09;100351.09;;;4.88;91.67
26376;BME280;30544;42.196;24.336;2022-12-29T06:57:37;100353.19;;;5.01;92.50
26376;BME280;30544;42.196;24.336;2022-12-29T07:00:05;100350.13;;;5.19;90.86
26376;BME280;30544;42.196;24.336;2022-12-29T07:02:32;100355.28;;;5.22;91.33
26376;BME280;30544;42.196;24.336;2022-12-29T07:04:59;100353.50;;;5.43;90.77
26376;BME280;30544;42.196;24.336;2022-12-29T07:07:26;100349.91;;;5.43;89.86
26376;BME280;30544;42.196;24.336;2022-12-29T07:09:53;100352.66;;;5.43;90.09
26376;BME280;30544;42.196;24.336;2022-12-29T07:12:20;100351.81;;;5.42;89.96
26376;BME280;30544;42.196;24.336;2022-12-29T07:14:48;100346.66;;;5.54;89.58
26376;BME280;30544;42.196;24.336;2022-12-29T07:17:15;100358.94;;;5.66;89.09
26376;BME280;30544;42.196;24.336;2022-12-29T07:19:41;100355.25;;;5.59;88.69
26376;BME280;30544;42.196;24.336;2022-12-29T07:22:09;100348.91;;;5.88;87.96
26376;BME280;30544;42.196;24.336;2022-12-29T07:24:36;100348.00;;;5.88;88.19
26376;BME280;30544;42.196;24.336;2022-12-29T07:27:03;100351.94;;;5.79;87.26
26376;BME280;30544;42.196;24.336;2022-12-29T07:29:30;100354.59;;;6.01;87.13
26376;BME280;30544;42.196;24.336;2022-12-29T07:31:58;100352.22;;;6.13;86.71
26376;BME280;30544;42.196;24.336;2022-12-29T07:34:25;100353.28;;;5.97;86.11
26376;BME280;30544;42.196;24.336;2022-12-29T07:36:52;100352.69;;;6.02;86.44
26376;BME280;30544;42.196;24.336;2022-12-29T07:39:19;100352.69;;;6.17;86.65
26376;BME280;30544;42.196;24.336;2022-12-29T07:41:45;100342.22;;;6.27;85.27
26376;BME280;30544;42.196;24.336;2022-12-29T07:44:12;100347.41;;;6.37;84.75
26376;BME280;30544;42.196;24.336;2022-12-29T07:46:39;100342.72;;;6.52;84.66
26376;BME280;30544;42.196;24.336;2022-12-29T07:49:07;100342.38;;;6.76;83.80
26376;BME280;30544;42.196;24.336;2022-12-29T07:51:34;100340.66;;;6.75;83.36
26376;BME280;30544;42.196;24.336;2022-12-29T07:54:00;100332.78;;;6.93;82.24
26376;BME280;30544;42.196;24.336;2022-12-29T07:56:27;100336.59;;;7.14;81.50
26376;BME280;30544;42.196;24.336;2022-12-29T07:58:54;100332.78;;;7.15;81.74
26376;BME280;30544;42.196;24.336;2022-12-29T08:01:21;100338.91;;;7.38;80.76
26376;BME280;30544;42.196;24.336;2022-12-29T08:03:48;100337.97;;;7.03;80.87
26376;BME280;30544;42.196;24.336;2022-12-29T08:06:16;100336.34;;;7.09;81.21
26376;BME280;30544;42.196;24.336;2022-12-29T08:08:43;100337.88;;;7.18;81.19
26376;BME280;30544;42.196;24.336;2022-12-29T08:11:10;100330.81;;;7.37;80.49
26376;BME280;30544;42.196;24.336;2022-12-29T08:13:37;100333.38;;;7.66;79.08
26376;BME280;30544;42.196;24.336;2022-12-29T08:16:04;100337.63;;;7.69;79.30
26376;BME280;30544;42.196;24.336;2022-12-29T08:18:31;100338.22;;;7.92;78.00
26376;BME280;30544;42.196;24.336;2022-12-29T08:21:01;100326.00;;;8.08;77.45
26376;BME280;30544;42.196;24.336;2022-12-29T08:23:29;100328.59;;;7.81;78.17
26376;BME280;30544;42.196;24.336;2022-12-29T08:25:57;100329.84;;;8.20;76.96
26376;BME280;30544;42.196;24.336;2022-12-29T08:28:24;100327.50;;;7.76;78.71
26376;BME280;30544;42.196;24.336;2022-12-29T08:30:51;100332.03;;;8.25;76.66
26376;BME280;30544;42.196;24.336;2022-12-29T08:33:18;100318.50;;;8.43;76.02
26376;BME280;30544;42.196;24.336;2022-12-29T08:35:45;100324.00;;;8.36;76.21
26376;BME280;30544;42.196;24.336;2022-12-29T08:38:11;100322.56;;;8.47;75.17
26376;BME280;30544;42.196;24.336;2022-12-29T08:40:40;100318.69;;;8.35;74.30
26376;BME280;30544;42.196;24.336;2022-12-29T08:43:07;100319.63;;;8.68;74.12
26376;BME280;30544;42.196;24.336;2022-12-29T08:45:33;100320.91;;;8.72;73.31
26376;BME280;30544;42.196;24.336;2022-12-29T08:48:00;100313.31;;;8.94;73.15
26376;BME280;30544;42.196;24.336;2022-12-29T08:50:29;100312.47;;;9.07;72.11
26376;BME280;30544;42.196;24.336;2022-12-29T08:52:56;100305.00;;;9.21;70.20
26376;BME280;30544;42.196;24.336;2022-12-29T08:55:23;100302.66;;;8.91;72.13
26376;BME280;30544;42.196;24.336;2022-12-29T08:57:51;100288.84;;;8.98;72.52
26376;BME280;30544;42.196;24.336;2022-12-29T09:00:18;100291.19;;;9.27;71.64
26376;BME280;30544;42.196;24.336;2022-12-29T09:02:46;100283.25;;;9.51;70.92
26376;BME280;30544;42.196;24.336;2022-12-29T09:05:13;100287.09;;;9.63;69.35
26376;BME280;30544;42.196;24.336;2022-12-29T09:07:40;100276.94;;;9.24;70.76
26376;BME280;30544;42.196;24.336;2022-12-29T09:10:06;100286.69;;;9.40;70.64
26376;BME280;30544;42.196;24.336;2022-12-29T09:12:33;100277.78;;;9.11;70.73
26376;BME280;30544;42.196;24.336;2022-12-29T09:15:05;100285.81;;;9.59;70.70
26376;BME280;30544;42.196;24.336;2022-12-29T09:17:32;100276.44;;;9.40;70.28
26376;BME280;30544;42.196;24.336;2022-12-29T09:20:09;100270.72;;;9.35;70.11
26376;BME280;30544;42.196;24.336;2022-12-29T09:22:36;100267.09;;;9.34;70.41
26376;BME280;30544;42.196;24.336;2022-12-29T09:25:03;100275.03;;;10.02;69.10
26376;BME280;30544;42.196;24.336;2022-12-29T09:27:30;100266.03;;;9.49;69.51
26376;BME280;30544;42.196;24.336;2022-12-29T09:29:57;100258.72;;;9.68;69.58
26376;BME280;30544;42.196;24.336;2022-12-29T09:32:25;100258.09;;;9.65;69.33
26376;BME280;30544;42.196;24.336;2022-12-29T09:34:52;100253.81;;;9.76;69.09
26376;BME280;30544;42.196;24.336;2022-12-29T09:37:19;100253.13;;;9.94;70.08
26376;BME280;30544;42.196;24.336;2022-12-29T09:39:46;100252.75;;;9.77;68.83
26376;BME280;30544;42.196;24.336;2022-12-29T09:42:18;100242.22;;;9.99;68.75
26376;BME280;30544;42.196;24.336;2022-12-29T09:45:01;100241.31;;;10.12;68.53
26376;BME280;30544;42.196;24.336;2022-12-29T09:47:32;100231.25;;;10.24;68.28
26376;BME280;30544;42.196;24.336;2022-12-29T09:50:01;100229.78;;;10.15;68.63
26376;BME280;30544;42.196;24.336;2022-12-29T09:52:33;100227.50;;;9.99;67.98
26376;BME280;30544;42.196;24.336;2022-12-29T09:55:04;100218.75;;;10.08;67.68
26376;BME280;30544;42.196;24.336;2022-12-29T09:57:40;100218.84;;;10.33;67.50
26376;BME280;30544;42.196;24.336;2022-12-29T10:00:13;100213.59;;;10.81;66.31
26376;BME280;30544;42.196;24.336;2022-12-29T10:02:46;100205.97;;;10.01;68.01
26376;BME280;30544;42.196;24.336;2022-12-29T10:05:27;100207.38;;;10.54;66.35
26376;BME280;30544;42.196;24.336;2022-12-29T10:08:05;100203.34;;;10.82;65.72
26376;BME280;30544;42.196;24.336;2022-12-29T10:10:38;100195.19;;;10.31;67.29
26376;BME280;30544;42.196;24.336;2022-12-29T10:13:18;100199.66;;;10.63;66.50
26376;BME280;30544;42.196;24.336;2022-12-29T10:15:55;100189.97;;;10.41;66.63
26376;BME280;30544;42.196;24.336;2022-12-29T10:18:36;100186.56;;;10.45;67.96
26376;BME280;30544;42.196;24.336;2022-12-29T10:21:18;100195.19;;;10.87;66.70
26376;BME280;30544;42.196;24.336;2022-12-29T10:23:51;100181.03;;;10.39;68.40
26376;BME280;30544;42.196;24.336;2022-12-29T10:26:20;100177.09;;;10.53;67.08
26376;BME280;30544;42.196;24.336;2022-12-29T10:28:50;100181.00;;;10.45;67.65
26376;BME280;30544;42.196;24.336;2022-12-29T10:31:22;100184.03;;;10.37;66.96
26376;BME280;30544;42.196;24.336;2022-12-29T10:33:56;100176.44;;;10.26;67.46
26376;BME280;30544;42.196;24.336;2022-12-29T10:36:28;100176.25;;;10.52;67.33
26376;BME280;30544;42.196;24.336;2022-12-29T10:39:04;100172.94;;;10.37;67.57
26376;BME280;30544;42.196;24.336;2022-12-29T10:41:37;100181.63;;;10.47;66.71
26376;BME280;30544;42.196;24.336;2022-12-29T10:44:07;100184.31;;;10.61;66.58
26376;BME280;30544;42.196;24.336;2022-12-29T10:46:36;100175.84;;;10.49;67.27
26376;BME280;30544;42.196;24.336;2022-12-29T10:49:06;100169.97;;;10.89;65.56
26376;BME280;30544;42.196;24.336;2022-12-29T10:51:41;100162.50;;;10.64;66.52
26376;BME280;30544;42.196;24.336;2022-12-29T10:54:15;100169.13;;;10.88;66.12
26376;BME280;30544;42.196;24.336;2022-12-29T10:56:46;100159.84;;;11.01;66.12
26376;BME280;30544;42.196;24.336;2022-12-29T10:59:19;100160.47;;;11.03;65.61
26376;BME280;30544;42.196;24.336;2022-12-29T11:01:56;100156.25;;;11.19;64.80
26376;BME280;30544;42.196;24.336;2022-12-29T11:04:43;100161.41;;;10.90;65.69
26376;BME280;30544;42.196;24.336;2022-12-29T11:07:12;100154.63;;;10.86;66.00
26376;BME280;30544;42.196;24.336;2022-12-29T11:09:43;100149.00;;;11.18;64.92
26376;BME280;30544;42.196;24.336;2022-12-29T11:12:21;100141.50;;;10.75;65.76
26376;BME280;30544;42.196;24.336;2022-12-29T11:15:11;100135.34;;;11.16;65.16
26376;BME280;30544;42.196;24.336;2022-12-29T11:17:44;100134.97;;;11.31;64.85
26376;BME280;30544;42.196;24.336;2022-12-29T11:20:27;100129.56;;;11.36;64.31
26376;BME280;30544;42.196;24.336;2022-12-29T11:22:55;100123.06;;;11.24;64.70
26376;BME280;30544;42.196;24.336;2022-12-29T11:25:22;100125.56;;;11.32;63.61
26376;BME280;30544;42.196;24.336;2022-12-29T11:27:55;100125.94;;;11.35;64.19
26376;BME280;30544;42.196;24.336;2022-12-29T11:30:23;100123.91;;;11.24;64.33
26376;BME280;30544;42.196;24.336;2022-12-29T11:32:51;100124.38;;;11.21;64.70
26376;BME280;30544;42.196;24.336;2022-12-29T11:35:30;100118.75;;;11.64;63.27
26376;BME280;30544;42.196;24.336;2022-12-29T11:37:58;100112.19;;;11.22;65.47
26376;BME280;30544;42.196;24.336;2022-12-29T11:40:25;100113.69;;;11.43;64.75
26376;BME280;30544;42.196;24.336;2022-12-29T11:42:54;100109.84;;;11.44;63.85
26376;BME280;30544;42.196;24.336;2022-12-29T11:45:23;100102.16;;;11.76;63.65
26376;BME280;30544;42.196;24.336;2022-12-29T11:47:53;100093.22;;;11.37;64.41
26376;BME280;30544;42.196;24.336;2022-12-29T11:50:24;100093.00;;;11.39;64.93
26376;BME280;30544;42.196;24.336;2022-12-29T11:52:59;100096.31;;;11.29;64.92
26376;BME280;30544;42.196;24.336;2022-12-29T11:55:28;100091.16;;;11.33;64.91
26376;BME280;30544;42.196;24.336;2022-12-29T11:57:57;100080.78;;;11.40;64.28
26376;BME280;30544;42.196;24.336;2022-12-29T12:00:27;100086.44;;;11.52;63.79
26376;BME280;30544;42.196;24.336;2022-12-29T12:02:58;100084.03;;;11.55;63.70
26376;BME280;30544;42.196;24.336;2022-12-29T12:05:36;100086.50;;;11.63;63.95
26376;BME280;30544;42.196;24.336;2022-12-29T12:08:10;100073.91;;;11.79;62.99
26376;BME280;30544;42.196;24.336;2022-12-29T12:10:42;100068.13;;;11.81;63.78
26376;BME280;30544;42.196;24.336;2022-12-29T12:13:23;100079.91;;;11.28;64.75
26376;BME280;30544;42.196;24.336;2022-12-29T12:15:57;100070.34;;;11.72;63.88
26376;BME280;30544;42.196;24.336;2022-12-29T12:18:38;100068.59;;;11.41;65.28
26376;BME280;30544;42.196;24.336;2022-12-29T12:21:15;100079.31;;;11.56;64.59
26376;BME280;30544;42.196;24.336;2022-12-29T12:23:57;100065.13;;;11.64;64.82
26376;BME280;30544;42.196;24.336;2022-12-29T12:26:31;100069.03;;;11.93;63.41
26376;BME280;30544;42.196;24.336;2022-12-29T12:29:01;100067.16;;;11.87;64.06
26376;BME280;30544;42.196;24.336;2022-12-29T12:31:41;100067.63;;;11.17;65.80
26376;BME280;30544;42.196;24.336;2022-12-29T12:34:15;100060.88;;;11.61;65.19
26376;BME280;30544;42.196;24.336;2022-12-29T12:36:58;100049.44;;;11.69;64.41
26376;BME280;30544;42.196;24.336;2022-12-29T12:39:36;100050.19;;;11.47;64.45
26376;BME280;30544;42.196;24.336;2022-12-29T12:42:13;100047.72;;;11.68;65.08
26376;BME280;30544;42.196;24.336;2022-12-29T12:44:50;100050.06;;;11.53;65.78
26376;BME280;30544;42.196;24.336;2022-12-29T12:47:33;100043.75;;;11.64;64.59
26376;BME280;30544;42.196;24.336;2022-12-29T12:50:32;100040.91;;;11.53;65.15
26376;BME280;30544;42.196;24.336;2022-12-29T12:53:16;100043.22;;;11.37;65.87
26376;BME280;30544;42.196;24.336;2022-12-29T12:56:17;100052.78;;;11.41;65.86
26376;BME280;30544;42.196;24.336;2022-12-29T12:58:51;100053.09;;;11.52;65.13
26376;BME280;30544;42.196;24.336;2022-12-29T13:01:33;100044.31;;;11.36;65.57
26376;BME280;30544;42.196;24.336;2022-12-29T13:04:18;100038.50;;;11.56;65.15
26376;BME280;30544;42.196;24.336;2022-12-29T13:06:52;100043.00;;;11.39;65.18
26376;BME280;30544;42.196;24.336;2022-12-29T13:09:41;100050.56;;;11.32;66.09